createdAt,value
2023-03-22T00:00:31.385Z,1008.13
2023-03-22T00:01:31.619Z,1008.17
2023-03-22T00:02:31.449Z,1008.17
2023-03-22T00:03:31.739Z,1008.17
2023-03-22T00:04:31.506Z,1008.15
2023-03-22T00:05:31.239Z,1008.15
2023-03-22T00:06:31.578Z,1008.12
2023-03-22T00:07:31.306Z,1008.08
2023-03-22T00:08:52.361Z,1008.06
2023-03-22T00:09:31.414Z,1008.07
2023-03-22T00:10:31.259Z,1008.08
2023-03-22T00:11:31.541Z,1008.06
2023-03-22T00:12:31.347Z,1008.00
2023-03-22T00:13:31.586Z,1008.07
2023-03-22T00:14:31.379Z,1008.01
2023-03-22T00:15:31.193Z,1007.99
2023-03-22T00:16:31.559Z,1007.98
2023-03-22T00:17:31.216Z,1007.96
2023-03-22T00:18:53.007Z,1007.95
2023-03-22T00:19:31.356Z,1007.96
2023-03-22T00:20:31.126Z,1007.99
2023-03-22T00:21:31.418Z,1007.84
2023-03-22T00:22:31.189Z,1007.85
2023-03-22T00:23:31.457Z,1007.87
2023-03-22T00:24:31.266Z,1007.85
2023-03-22T00:25:31.104Z,1007.88
2023-03-22T00:26:31.337Z,1007.84
2023-03-22T00:27:31.148Z,1007.84
2023-03-22T00:28:52.967Z,1007.82
2023-03-22T00:29:31.270Z,1007.79
2023-03-22T00:30:31.108Z,1007.82
2023-03-22T00:31:31.405Z,1007.79
2023-03-22T00:32:31.179Z,1007.80
2023-03-22T00:33:30.946Z,1007.76
2023-03-22T00:34:31.253Z,1007.79
2023-03-22T00:35:30.977Z,1007.77
2023-03-22T00:36:31.255Z,1007.78
2023-03-22T00:37:31.081Z,1007.71
2023-03-22T00:38:51.867Z,1007.71
2023-03-22T00:39:31.256Z,1007.71
2023-03-22T00:40:31.095Z,1007.69
2023-03-22T00:41:30.867Z,1007.68
2023-03-22T00:42:31.143Z,1007.66
2023-03-22T00:43:36.295Z,1007.63
2023-03-22T00:44:31.069Z,1007.58
2023-03-22T00:45:30.897Z,1007.59
2023-03-22T00:46:31.133Z,1007.62
2023-03-22T00:47:30.864Z,1007.61
2023-03-22T00:48:52.640Z,1007.61
2023-03-22T00:49:30.997Z,1007.57
2023-03-22T00:50:31.292Z,1007.55
2023-03-22T00:51:31.074Z,1007.57
2023-03-22T00:52:30.821Z,1007.56
2023-03-22T00:53:31.101Z,1007.56
2023-03-22T00:54:30.940Z,1007.52
2023-03-22T00:55:31.224Z,1007.54
2023-03-22T00:56:31.000Z,1007.50
2023-03-22T00:57:30.779Z,1007.52
2023-03-22T00:58:52.111Z,1007.48
2023-03-22T00:59:30.927Z,1007.42
2023-03-22T01:00:30.671Z,1007.42
2023-03-22T01:01:31.059Z,1007.44
2023-03-22T01:02:30.771Z,1007.37
2023-03-22T01:03:31.116Z,1007.33
2023-03-22T01:04:30.801Z,1007.30
2023-03-22T01:05:31.103Z,1007.32
2023-03-22T01:06:30.871Z,1007.32
2023-03-22T01:07:30.660Z,1007.33
2023-03-22T01:08:52.432Z,1007.24
2023-03-22T01:09:30.780Z,1007.19
2023-03-22T01:10:30.539Z,1007.22
2023-03-22T01:11:30.880Z,1007.19
2023-03-22T01:12:30.659Z,1007.17
2023-03-22T01:13:30.955Z,1007.16
2023-03-22T01:14:30.696Z,1007.20
2023-03-22T01:15:30.994Z,1007.18
2023-03-22T01:16:30.772Z,1007.18
2023-03-22T01:17:30.536Z,1007.14
2023-03-22T01:18:51.392Z,1007.15
2023-03-22T01:19:30.668Z,1007.14
2023-03-22T01:20:30.451Z,1007.14
2023-03-22T01:21:30.752Z,1007.10
2023-03-22T01:22:30.547Z,1007.09
2023-03-22T01:23:30.848Z,1007.11
2023-03-22T01:24:30.600Z,1007.08
2023-03-22T01:25:30.400Z,1007.03
2023-03-22T01:26:30.632Z,1007.00
2023-03-22T01:27:30.466Z,1007.00
2023-03-22T01:28:50.752Z,1006.99
2023-03-22T01:29:30.501Z,1006.99
2023-03-22T01:30:30.850Z,1006.92
2023-03-22T01:31:30.584Z,1006.91
2023-03-22T01:32:30.342Z,1006.88
2023-03-22T01:33:35.941Z,1006.86
2023-03-22T01:34:30.732Z,1006.86
2023-03-22T01:35:30.545Z,1006.80
2023-03-22T01:36:30.804Z,1006.75
2023-03-22T01:37:30.595Z,1006.74
2023-03-22T01:38:50.405Z,1006.70
2023-03-22T01:39:30.668Z,1006.68
2023-03-22T01:40:30.425Z,1006.66
2023-03-22T01:41:30.750Z,1006.63
2023-03-22T01:42:30.535Z,1006.65
2023-03-22T01:43:30.298Z,1006.61
2023-03-22T01:44:30.570Z,1006.61
2023-03-22T01:45:30.434Z,1006.54
2023-03-22T01:46:30.708Z,1006.56
2023-03-22T01:47:30.469Z,1006.53
2023-03-22T01:48:50.242Z,1006.52
2023-03-22T01:49:30.530Z,1006.48
2023-03-22T01:50:30.276Z,1006.49
2023-03-22T01:51:30.579Z,1006.49
2023-03-22T01:52:32.194Z,1006.49
2023-03-22T01:53:31.541Z,1006.46
2023-03-22T01:54:30.324Z,1006.51
2023-03-22T01:55:30.092Z,1006.50
2023-03-22T01:56:30.366Z,1006.51
2023-03-22T01:57:30.147Z,1006.49
2023-03-22T01:58:51.955Z,1006.48
2023-03-22T01:59:30.304Z,1006.48
2023-03-22T02:00:30.052Z,1006.46
2023-03-22T02:01:30.350Z,1006.44
2023-03-22T02:02:30.158Z,1006.43
2023-03-22T02:03:30.449Z,1006.38
2023-03-22T02:04:30.222Z,1006.34
2023-03-22T02:05:29.967Z,1006.34
2023-03-22T02:06:30.245Z,1006.32
2023-03-22T02:07:30.007Z,1006.30
2023-03-22T02:08:51.300Z,1006.23
2023-03-22T02:09:30.148Z,1006.26
2023-03-22T02:10:30.437Z,1006.27
2023-03-22T02:11:30.185Z,1006.28
2023-03-22T02:12:29.965Z,1006.26
2023-03-22T02:13:30.206Z,1006.26
2023-03-22T02:14:30.016Z,1006.20
2023-03-22T02:15:30.313Z,1006.16
2023-03-22T02:16:30.036Z,1006.12
2023-03-22T02:17:30.307Z,1006.13
2023-03-22T02:18:51.638Z,1006.16
2023-03-22T02:19:29.957Z,1006.16
2023-03-22T02:20:30.238Z,1006.17
2023-03-22T02:21:30.021Z,1006.23
2023-03-22T02:22:29.822Z,1006.22
2023-03-22T02:23:30.066Z,1006.19
2023-03-22T02:24:29.918Z,1006.15
2023-03-22T02:25:30.181Z,1006.15
2023-03-22T02:26:29.994Z,1006.12
2023-03-22T02:27:29.751Z,1006.13
2023-03-22T02:28:51.559Z,1006.12
2023-03-22T02:29:29.984Z,1006.14
2023-03-22T02:30:30.188Z,1006.13
2023-03-22T02:31:30.077Z,1006.12
2023-03-22T02:32:29.789Z,1006.11
2023-03-22T02:33:30.099Z,1006.13
2023-03-22T02:34:29.842Z,1006.07
2023-03-22T02:35:30.197Z,1006.06
2023-03-22T02:36:29.922Z,1006.05
2023-03-22T02:37:29.683Z,1006.06
2023-03-22T02:38:51.499Z,1006.07
2023-03-22T02:39:29.815Z,1006.10
2023-03-22T02:40:29.602Z,1006.07
2023-03-22T02:41:29.883Z,1006.12
2023-03-22T02:42:29.688Z,1006.09
2023-03-22T02:43:29.961Z,1006.08
2023-03-22T02:44:29.739Z,1006.11
2023-03-22T02:45:30.003Z,1006.13
2023-03-22T02:46:29.887Z,1006.11
2023-03-22T02:47:29.552Z,1006.08
2023-03-22T02:48:51.365Z,1006.06
2023-03-22T02:49:29.684Z,1006.05
2023-03-22T02:50:29.965Z,1006.01
2023-03-22T02:51:29.805Z,1006.04
2023-03-22T02:52:29.536Z,1006.01
2023-03-22T02:53:29.852Z,1006.01
2023-03-22T02:54:29.614Z,1006.07
2023-03-22T02:55:29.895Z,1005.98
2023-03-22T02:56:29.700Z,1006.02
2023-03-22T02:57:29.464Z,1005.99
2023-03-22T02:58:50.459Z,1005.96
2023-03-22T02:59:29.628Z,1005.95
2023-03-22T03:00:29.434Z,1005.90
2023-03-22T03:01:29.712Z,1005.91
2023-03-22T03:02:29.504Z,1005.94
2023-03-22T03:03:29.755Z,1005.92
2023-03-22T03:04:29.566Z,1005.89
2023-03-22T03:05:29.358Z,1005.88
2023-03-22T03:06:29.638Z,1005.88
2023-03-22T03:07:29.445Z,1005.86
2023-03-22T03:08:51.245Z,1005.85
2023-03-22T03:09:29.556Z,1005.86
2023-03-22T03:10:29.502Z,1005.82
2023-03-22T03:11:30.419Z,1005.81
2023-03-22T03:12:29.520Z,1005.78
2023-03-22T03:13:29.306Z,1005.75
2023-03-22T03:14:29.615Z,1005.76
2023-03-22T03:15:29.372Z,1005.80
2023-03-22T03:16:29.820Z,1005.80
2023-03-22T03:17:29.533Z,1005.75
2023-03-22T03:18:50.774Z,1005.76
2023-03-22T03:19:29.621Z,1005.73
2023-03-22T03:20:29.438Z,1005.74
2023-03-22T03:21:29.172Z,1005.72
2023-03-22T03:22:29.442Z,1005.77
2023-03-22T03:23:29.231Z,1005.77
2023-03-22T03:24:29.553Z,1005.78
2023-03-22T03:25:29.320Z,1005.78
2023-03-22T03:26:29.165Z,1005.77
2023-03-22T03:27:29.395Z,1005.66
2023-03-22T03:28:50.014Z,1005.67
2023-03-22T03:29:29.565Z,1005.73
2023-03-22T03:30:29.363Z,1005.62
2023-03-22T03:31:29.165Z,1005.63
2023-03-22T03:32:29.394Z,1005.67
2023-03-22T03:33:29.174Z,1005.59
2023-03-22T03:34:29.464Z,1005.65
2023-03-22T03:35:29.314Z,1005.63
2023-03-22T03:36:29.074Z,1005.67
2023-03-22T03:37:29.372Z,1005.64
2023-03-22T03:38:50.626Z,1005.58
2023-03-22T03:39:28.996Z,1005.65
2023-03-22T03:40:29.271Z,1005.67
2023-03-22T03:41:29.101Z,1005.65
2023-03-22T03:42:29.380Z,1005.64
2023-03-22T03:43:29.143Z,1005.67
2023-03-22T03:44:28.925Z,1005.68
2023-03-22T03:45:29.288Z,1005.71
2023-03-22T03:46:29.058Z,1005.69
2023-03-22T03:47:29.334Z,1005.67
2023-03-22T03:48:49.813Z,1005.64
2023-03-22T03:49:28.977Z,1005.72
2023-03-22T03:50:29.262Z,1005.73
2023-03-22T03:51:29.083Z,1005.70
2023-03-22T03:52:29.353Z,1005.77
2023-03-22T03:53:30.108Z,1005.72
2023-03-22T03:54:28.919Z,1005.74
2023-03-22T03:55:29.207Z,1005.77
2023-03-22T03:56:29.058Z,1005.76
2023-03-22T03:57:29.307Z,1005.75
2023-03-22T03:58:49.785Z,1005.70
2023-03-22T03:59:28.979Z,1005.76
2023-03-22T04:00:29.219Z,1005.74
2023-03-22T04:01:29.074Z,1005.72
2023-03-22T04:02:28.898Z,1005.66
2023-03-22T04:03:29.087Z,1005.69
2023-03-22T04:04:29.106Z,1005.70
2023-03-22T04:05:29.172Z,1005.73
2023-03-22T04:06:28.942Z,1005.68
2023-03-22T04:07:28.777Z,1005.71
2023-03-22T04:08:49.517Z,1005.70
2023-03-22T04:09:28.916Z,1005.70
2023-03-22T04:10:28.681Z,1005.67
2023-03-22T04:11:28.949Z,1005.71
2023-03-22T04:12:28.742Z,1005.76
2023-03-22T04:13:34.353Z,1005.73
2023-03-22T04:14:28.707Z,1005.75
2023-03-22T04:15:28.991Z,1005.68
2023-03-22T04:16:28.825Z,1005.72
2023-03-22T04:17:28.999Z,1005.70
2023-03-22T04:18:49.812Z,1005.62
2023-03-22T04:19:28.619Z,1005.66
2023-03-22T04:20:28.925Z,1005.66
2023-03-22T04:21:28.737Z,1005.66
2023-03-22T04:22:29.017Z,1005.63
2023-03-22T04:23:28.836Z,1005.64
2023-03-22T04:24:28.632Z,1005.68
2023-03-22T04:25:28.915Z,1005.64
2023-03-22T04:26:28.699Z,1005.59
2023-03-22T04:27:28.468Z,1005.58
2023-03-22T04:28:50.309Z,1005.60
2023-03-22T04:29:28.605Z,1005.57
2023-03-22T04:30:28.917Z,1005.54
2023-03-22T04:31:28.741Z,1005.49
2023-03-22T04:32:28.487Z,1005.51
2023-03-22T04:33:28.759Z,1005.50
2023-03-22T04:34:28.547Z,1005.46
2023-03-22T04:35:28.882Z,1005.52
2023-03-22T04:36:28.647Z,1005.50
2023-03-22T04:37:28.415Z,1005.50
2023-03-22T04:38:49.793Z,1005.53
2023-03-22T04:39:28.642Z,1005.52
2023-03-22T04:40:28.427Z,1005.55
2023-03-22T04:41:30.273Z,1005.51
2023-03-22T04:42:28.495Z,1005.49
2023-03-22T04:43:28.999Z,1005.53
2023-03-22T04:44:28.663Z,1005.50
2023-03-22T04:45:28.358Z,1005.50
2023-03-22T04:46:28.799Z,1005.52
2023-03-22T04:47:28.412Z,1005.53
2023-03-22T04:48:49.038Z,1005.52
2023-03-22T04:49:28.558Z,1005.51
2023-03-22T04:50:28.424Z,1005.49
2023-03-22T04:51:28.703Z,1005.49
2023-03-22T04:52:30.419Z,1005.52
2023-03-22T04:53:28.219Z,1005.44
2023-03-22T04:54:28.583Z,1005.47
2023-03-22T04:55:28.342Z,1005.48
2023-03-22T04:56:28.682Z,1005.45
2023-03-22T04:57:28.381Z,1005.46
2023-03-22T04:58:48.859Z,1005.50
2023-03-22T04:59:28.458Z,1005.50
2023-03-22T05:00:28.279Z,1005.53
2023-03-22T05:01:28.638Z,1005.47
2023-03-22T05:02:28.400Z,1005.47
2023-03-22T05:03:28.143Z,1005.44
2023-03-22T05:04:28.446Z,1005.48
2023-03-22T05:05:28.259Z,1005.46
2023-03-22T05:06:28.122Z,1005.50
2023-03-22T05:07:28.403Z,1005.40
2023-03-22T05:08:49.732Z,1005.42
2023-03-22T05:09:28.020Z,1005.45
2023-03-22T05:10:28.289Z,1005.43
2023-03-22T05:11:28.050Z,1005.44
2023-03-22T05:12:28.328Z,1005.48
2023-03-22T05:13:28.053Z,1005.44
2023-03-22T05:14:28.373Z,1005.49
2023-03-22T05:15:28.034Z,1005.48
2023-03-22T05:16:28.335Z,1005.52
2023-03-22T05:17:28.060Z,1005.49
2023-03-22T05:18:49.826Z,1005.41
2023-03-22T05:19:30.131Z,1005.41
2023-03-22T05:20:27.873Z,1005.40
2023-03-22T05:21:28.121Z,1005.42
2023-03-22T05:22:28.365Z,1005.36
2023-03-22T05:23:28.113Z,1005.40
2023-03-22T05:24:27.918Z,1005.41
2023-03-22T05:25:28.153Z,1005.36
2023-03-22T05:26:27.956Z,1005.39
2023-03-22T05:27:28.161Z,1005.41
2023-03-22T05:28:48.557Z,1005.44
2023-03-22T05:29:28.315Z,1005.36
2023-03-22T05:30:28.011Z,1005.37
2023-03-22T05:31:27.804Z,1005.37
2023-03-22T05:32:28.021Z,1005.39
2023-03-22T05:33:27.804Z,1005.46
2023-03-22T05:34:28.066Z,1005.37
2023-03-22T05:35:27.895Z,1005.35
2023-03-22T05:36:28.131Z,1005.37
2023-03-22T05:37:27.884Z,1005.32
2023-03-22T05:38:48.869Z,1005.31
2023-03-22T05:39:27.964Z,1005.36
2023-03-22T05:40:27.708Z,1005.37
2023-03-22T05:41:28.025Z,1005.36
2023-03-22T05:42:27.780Z,1005.41
2023-03-22T05:43:28.044Z,1005.30
2023-03-22T05:44:27.794Z,1005.37
2023-03-22T05:45:28.046Z,1005.36
2023-03-22T05:46:27.828Z,1005.37
2023-03-22T05:47:28.079Z,1005.36
2023-03-22T05:48:47.839Z,1005.37
2023-03-22T05:49:28.653Z,1005.39
2023-03-22T05:50:28.955Z,1005.40
2023-03-22T05:51:28.493Z,1005.36
2023-03-22T05:52:29.080Z,1005.42
2023-03-22T05:53:28.658Z,1005.47
2023-03-22T05:54:29.267Z,1005.46
2023-03-22T05:55:29.175Z,1005.46
2023-03-22T05:56:29.162Z,1005.40
2023-03-22T05:57:28.551Z,1005.48
2023-03-22T05:58:47.827Z,1005.48
2023-03-22T05:59:28.596Z,1005.47
2023-03-22T06:00:29.472Z,1005.49
2023-03-22T06:01:29.302Z,1005.49
2023-03-22T06:02:28.544Z,1005.54
2023-03-22T06:03:27.669Z,1005.50
2023-03-22T06:04:29.497Z,1005.49
2023-03-22T06:05:28.544Z,1005.52
2023-03-22T06:06:28.744Z,1005.55
2023-03-22T06:07:29.111Z,1005.49
2023-03-22T06:08:47.970Z,1005.53
2023-03-22T06:09:29.280Z,1005.57
2023-03-22T06:10:29.091Z,1005.51
2023-03-22T06:11:28.925Z,1005.44
2023-03-22T06:12:30.142Z,1005.43
2023-03-22T06:13:27.810Z,1005.38
2023-03-22T06:14:28.070Z,1005.39
2023-03-22T06:15:28.843Z,1005.38
2023-03-22T06:16:28.820Z,1005.45
2023-03-22T06:17:28.295Z,1005.37
2023-03-22T06:18:47.482Z,1005.38
2023-03-22T06:19:29.264Z,1005.39
2023-03-22T06:20:28.050Z,1005.40
2023-03-22T06:21:29.049Z,1005.38
2023-03-22T06:22:28.857Z,1005.38
2023-03-22T06:23:28.588Z,1005.38
2023-03-22T06:24:28.981Z,1005.39
2023-03-22T06:25:27.087Z,1005.44
2023-03-22T06:26:28.161Z,1005.40
2023-03-22T06:27:29.060Z,1005.37
2023-03-22T06:28:47.375Z,1005.37
2023-03-22T06:29:26.616Z,1005.37
2023-03-22T06:30:26.681Z,1005.33
2023-03-22T06:31:27.407Z,1005.30
2023-03-22T06:32:27.131Z,1005.39
2023-03-22T06:33:27.382Z,1005.39
2023-03-22T06:34:26.603Z,1005.37
2023-03-22T06:35:27.404Z,1005.44
2023-03-22T06:36:27.121Z,1005.39
2023-03-22T06:37:27.392Z,1005.48
2023-03-22T06:38:48.668Z,1005.41
2023-03-22T06:39:27.488Z,1005.44
2023-03-22T06:40:27.316Z,1005.36
2023-03-22T06:41:27.030Z,1005.35
2023-03-22T06:42:27.322Z,1005.36
2023-03-22T06:43:27.045Z,1005.41
2023-03-22T06:44:27.337Z,1005.38
2023-03-22T06:45:27.057Z,1005.38
2023-03-22T06:46:27.443Z,1005.37
2023-03-22T06:47:27.089Z,1005.39
2023-03-22T06:48:48.079Z,1005.43
2023-03-22T06:49:27.191Z,1005.39
2023-03-22T06:50:26.968Z,1005.43
2023-03-22T06:51:27.222Z,1005.42
2023-03-22T06:52:26.972Z,1005.44
2023-03-22T06:53:27.230Z,1005.43
2023-03-22T06:54:27.030Z,1005.46
2023-03-22T06:55:27.295Z,1005.43
2023-03-22T06:56:27.066Z,1005.41
2023-03-22T06:57:26.830Z,1005.43
2023-03-22T06:58:48.617Z,1005.48
2023-03-22T06:59:26.902Z,1005.48
2023-03-22T07:00:27.261Z,1005.46
2023-03-22T07:01:27.109Z,1005.48
2023-03-22T07:02:26.778Z,1005.44
2023-03-22T07:03:27.016Z,1005.38
2023-03-22T07:04:26.821Z,1005.40
2023-03-22T07:05:27.039Z,1005.35
2023-03-22T07:06:26.809Z,1005.39
2023-03-22T07:07:27.044Z,1005.43
2023-03-22T07:08:48.173Z,1005.43
2023-03-22T07:09:27.175Z,1005.42
2023-03-22T07:10:26.907Z,1005.40
2023-03-22T07:11:27.160Z,1005.39
2023-03-22T07:12:26.924Z,1005.39
2023-03-22T07:13:26.684Z,1005.34
2023-03-22T07:14:26.969Z,1005.37
2023-03-22T07:15:26.690Z,1005.35
2023-03-22T07:16:27.085Z,1005.34
2023-03-22T07:17:26.710Z,1005.31
2023-03-22T07:18:47.019Z,1005.36
2023-03-22T07:19:26.759Z,1005.41
2023-03-22T07:20:27.034Z,1005.32
2023-03-22T07:21:26.770Z,1005.42
2023-03-22T07:22:27.042Z,1005.40
2023-03-22T07:23:26.794Z,1005.46
2023-03-22T07:24:26.566Z,1005.40
2023-03-22T07:25:26.861Z,1005.39
2023-03-22T07:26:26.632Z,1005.45
2023-03-22T07:27:26.844Z,1005.48
2023-03-22T07:28:46.653Z,1005.48
2023-03-22T07:29:26.868Z,1005.47
2023-03-22T07:30:26.609Z,1005.50
2023-03-22T07:31:26.874Z,1005.45
2023-03-22T07:32:26.688Z,1005.51
2023-03-22T07:33:26.930Z,1005.48
2023-03-22T07:34:26.659Z,1005.45
2023-03-22T07:35:27.132Z,1005.37
2023-03-22T07:36:26.722Z,1005.36
2023-03-22T07:37:26.488Z,1005.44
2023-03-22T07:38:47.751Z,1005.40
2023-03-22T07:39:26.547Z,1005.37
2023-03-22T07:40:26.802Z,1005.33
2023-03-22T07:41:26.605Z,1005.35
2023-03-22T07:42:26.960Z,1005.41
2023-03-22T07:43:26.605Z,1005.42
2023-03-22T07:44:26.339Z,1005.41
2023-03-22T07:45:26.612Z,1005.42
2023-03-22T07:46:26.872Z,1005.38
2023-03-22T07:47:39.876Z,1005.45
2023-03-22T07:48:47.389Z,1005.41
2023-03-22T07:49:26.629Z,1005.44
2023-03-22T07:50:26.427Z,1005.47
2023-03-22T07:51:26.689Z,1005.51
2023-03-22T07:52:25.769Z,1005.43
2023-03-22T07:53:26.599Z,1005.51
2023-03-22T07:54:33.816Z,1005.45
2023-03-22T07:55:27.637Z,1005.47
2023-03-22T07:56:26.369Z,1005.47
2023-03-22T07:57:26.644Z,1005.48
2023-03-22T07:58:46.492Z,1005.39
2023-03-22T07:59:26.641Z,1005.48
2023-03-22T08:00:26.390Z,1005.41
2023-03-22T08:01:26.632Z,1005.45
2023-03-22T08:02:26.433Z,1005.52
2023-03-22T08:03:26.731Z,1005.40
2023-03-22T08:04:26.426Z,1005.38
2023-03-22T08:05:26.210Z,1005.37
2023-03-22T08:06:26.493Z,1005.30
2023-03-22T08:07:26.235Z,1005.29
2023-03-22T08:08:46.492Z,1005.41
2023-03-22T08:09:26.244Z,1005.39
2023-03-22T08:10:26.539Z,1005.43
2023-03-22T08:11:26.277Z,1005.38
2023-03-22T08:12:26.606Z,1005.37
2023-03-22T08:13:26.320Z,1005.42
2023-03-22T08:14:35.887Z,1005.33
2023-03-22T08:15:27.610Z,1005.34
2023-03-22T08:16:26.148Z,1005.40
2023-03-22T08:17:26.378Z,1005.41
2023-03-22T08:18:46.137Z,1005.43
2023-03-22T08:19:26.366Z,1005.49
2023-03-22T08:20:26.120Z,1005.51
2023-03-22T08:21:26.668Z,1005.48
2023-03-22T08:22:26.132Z,1005.59
2023-03-22T08:23:38.612Z,1005.53
2023-03-22T08:24:27.161Z,1005.58
2023-03-22T08:25:25.941Z,1005.66
2023-03-22T08:26:26.320Z,1005.56
2023-03-22T08:27:25.930Z,1005.60
2023-03-22T08:28:46.188Z,1005.62
2023-03-22T08:29:25.929Z,1005.66
2023-03-22T08:30:26.201Z,1005.59
2023-03-22T08:31:26.001Z,1005.61
2023-03-22T08:32:26.218Z,1005.68
2023-03-22T08:33:26.005Z,1005.67
2023-03-22T08:34:26.220Z,1005.50
2023-03-22T08:35:26.005Z,1005.51
2023-03-22T08:36:26.240Z,1005.59
2023-03-22T08:37:26.015Z,1005.42
2023-03-22T08:38:46.390Z,1005.40
2023-03-22T08:39:26.256Z,1005.45
2023-03-22T08:40:25.957Z,1005.43
2023-03-22T08:41:27.503Z,1005.45
2023-03-22T08:42:25.822Z,1005.30
2023-03-22T08:43:26.106Z,1005.26
2023-03-22T08:44:25.826Z,1005.29
2023-03-22T08:45:26.093Z,1005.36
2023-03-22T08:46:25.853Z,1005.24
2023-03-22T08:47:26.106Z,1005.31
2023-03-22T08:48:45.895Z,1005.31
2023-03-22T08:49:26.143Z,1005.22
2023-03-22T08:50:26.851Z,1005.23
2023-03-22T08:51:25.623Z,1005.27
2023-03-22T08:52:25.893Z,1005.32
2023-03-22T08:53:25.687Z,1005.20
2023-03-22T08:54:26.849Z,1005.40
2023-03-22T08:55:25.660Z,1005.29
2023-03-22T08:56:25.908Z,1005.27
2023-03-22T08:57:25.683Z,1005.24
2023-03-22T08:58:45.923Z,1005.29
2023-03-22T08:59:25.684Z,1005.25
2023-03-22T09:00:33.981Z,1005.27
2023-03-22T09:01:26.767Z,1005.35
2023-03-22T09:02:25.978Z,1005.25
2023-03-22T09:03:25.745Z,1005.27
2023-03-22T09:04:25.495Z,1005.26
2023-03-22T09:05:25.780Z,1005.31
2023-03-22T09:06:25.517Z,1005.35
2023-03-22T09:07:25.847Z,1005.17
2023-03-22T09:08:45.614Z,1005.18
2023-03-22T09:09:25.857Z,1005.23
2023-03-22T09:10:25.622Z,1005.23
2023-03-22T09:11:26.033Z,1005.13
2023-03-22T09:12:25.802Z,1005.21
2023-03-22T09:13:25.566Z,1005.14
2023-03-22T09:14:25.818Z,1005.12
2023-03-22T09:15:25.577Z,1005.14
2023-03-22T09:16:25.841Z,1005.21
2023-03-22T09:17:25.585Z,1005.15
2023-03-22T09:18:45.997Z,1005.07
2023-03-22T09:19:25.633Z,1005.07
2023-03-22T09:20:25.387Z,1005.06
2023-03-22T09:21:25.646Z,1005.03
2023-03-22T09:22:25.406Z,1005.09
2023-03-22T09:23:25.682Z,1005.13
2023-03-22T09:24:25.426Z,1005.07
2023-03-22T09:25:25.685Z,1005.02
2023-03-22T09:26:25.422Z,1005.23
2023-03-22T09:27:25.689Z,1005.03
2023-03-22T09:28:45.470Z,1005.03
2023-03-22T09:29:26.202Z,1005.02
2023-03-22T09:30:25.177Z,1005.01
2023-03-22T09:31:25.715Z,1004.98
2023-03-22T09:32:25.385Z,1005.01
2023-03-22T09:33:25.622Z,1004.96
2023-03-22T09:34:25.393Z,1005.10
2023-03-22T09:35:25.195Z,1005.11
2023-03-22T09:36:25.394Z,1005.08
2023-03-22T09:37:26.112Z,1005.08
2023-03-22T09:38:45.432Z,1005.02
2023-03-22T09:39:25.497Z,1005.02
2023-03-22T09:40:25.448Z,1005.06
2023-03-22T09:41:26.626Z,1005.03
2023-03-22T09:42:25.444Z,1005.04
2023-03-22T09:43:26.544Z,1004.99
2023-03-22T09:44:25.496Z,1004.97
2023-03-22T09:45:25.604Z,1004.98
2023-03-22T09:46:25.067Z,1004.94
2023-03-22T09:47:28.747Z,1004.82
2023-03-22T09:48:48.206Z,1004.96
2023-03-22T09:49:25.344Z,1004.98
2023-03-22T09:50:25.108Z,1004.93
2023-03-22T09:51:25.353Z,1004.98
2023-03-22T09:52:26.618Z,1005.04
2023-03-22T09:53:25.430Z,1005.00
2023-03-22T09:54:25.193Z,1005.03
2023-03-22T09:55:25.417Z,1005.00
2023-03-22T09:56:25.171Z,1004.98
2023-03-22T09:57:26.403Z,1004.96
2023-03-22T09:58:45.266Z,1005.07
2023-03-22T09:59:25.697Z,1005.00
2023-03-22T10:00:25.334Z,1005.00
2023-03-22T10:01:25.310Z,1004.95
2023-03-22T10:02:25.398Z,1005.01
2023-03-22T10:03:25.269Z,1005.02
2023-03-22T10:04:26.571Z,1005.07
2023-03-22T10:05:25.691Z,1005.06
2023-03-22T10:06:28.206Z,1005.07
2023-03-22T10:07:25.274Z,1005.13
2023-03-22T10:08:45.088Z,1005.04
2023-03-22T10:09:26.276Z,1005.03
2023-03-22T10:10:25.627Z,1005.01
2023-03-22T10:11:25.178Z,1005.09
2023-03-22T10:12:25.214Z,1005.04
2023-03-22T10:13:26.446Z,1005.02
2023-03-22T10:14:26.276Z,1005.00
2023-03-22T10:15:25.077Z,1004.97
2023-03-22T10:16:25.709Z,1005.04
2023-03-22T10:17:25.121Z,1005.06
2023-03-22T10:18:44.903Z,1005.01
2023-03-22T10:19:25.153Z,1004.88
2023-03-22T10:20:24.959Z,1004.97
2023-03-22T10:21:26.176Z,1004.96
2023-03-22T10:22:25.048Z,1004.99
2023-03-22T10:23:26.291Z,1004.96
2023-03-22T10:24:25.122Z,1004.92
2023-03-22T10:25:26.366Z,1004.97
2023-03-22T10:26:26.198Z,1005.01
2023-03-22T10:27:25.704Z,1004.96
2023-03-22T10:28:44.830Z,1004.94
2023-03-22T10:29:26.552Z,1004.98
2023-03-22T10:30:26.399Z,1005.00
2023-03-22T10:31:25.740Z,1005.01
2023-03-22T10:32:25.008Z,1004.98
2023-03-22T10:33:25.464Z,1004.98
2023-03-22T10:34:24.704Z,1005.03
2023-03-22T10:35:25.097Z,1005.02
2023-03-22T10:36:26.288Z,1005.06
2023-03-22T10:37:24.633Z,1005.01
2023-03-22T10:38:46.478Z,1005.12
2023-03-22T10:39:24.679Z,1005.08
2023-03-22T10:40:24.954Z,1005.12
2023-03-22T10:41:24.712Z,1005.05
2023-03-22T10:42:24.445Z,1005.09
2023-03-22T10:43:24.747Z,1005.13
2023-03-22T10:44:24.481Z,1005.09
2023-03-22T10:45:24.753Z,1005.11
2023-03-22T10:46:24.484Z,1005.23
2023-03-22T10:47:24.730Z,1005.07
2023-03-22T10:48:46.098Z,1005.11
2023-03-22T10:49:24.850Z,1005.18
2023-03-22T10:50:24.610Z,1005.06
2023-03-22T10:51:24.840Z,1005.03
2023-03-22T10:52:24.734Z,1005.02
2023-03-22T10:53:24.576Z,1005.02
2023-03-22T10:54:26.122Z,1005.02
2023-03-22T10:55:24.565Z,1005.07
2023-03-22T10:56:24.835Z,1005.10
2023-03-22T10:57:24.532Z,1005.05
2023-03-22T10:58:45.249Z,1005.10
2023-03-22T10:59:24.672Z,1005.08
2023-03-22T11:00:24.573Z,1005.11
2023-03-22T11:01:24.794Z,1005.12
2023-03-22T11:02:24.582Z,1005.05
2023-03-22T11:03:24.719Z,1005.09
2023-03-22T11:04:26.017Z,1005.11
2023-03-22T11:05:24.274Z,1005.06
2023-03-22T11:06:24.523Z,1005.12
2023-03-22T11:07:24.298Z,1005.11
2023-03-22T11:08:45.610Z,1005.11
2023-03-22T11:09:24.400Z,1005.20
2023-03-22T11:10:24.706Z,1005.18
2023-03-22T11:11:25.423Z,1005.32
2023-03-22T11:12:24.164Z,1005.18
2023-03-22T11:13:24.431Z,1005.18
2023-03-22T11:14:24.181Z,1005.21
2023-03-22T11:15:24.446Z,1005.20
2023-03-22T11:16:24.273Z,1005.21
2023-03-22T11:17:25.706Z,1005.16
2023-03-22T11:18:44.927Z,1005.18
2023-03-22T11:19:24.505Z,1005.11
2023-03-22T11:20:24.295Z,1005.16
2023-03-22T11:21:24.529Z,1005.22
2023-03-22T11:22:24.280Z,1005.13
2023-03-22T11:23:24.064Z,1005.20
2023-03-22T11:24:26.296Z,1005.13
2023-03-22T11:25:24.083Z,1005.15
2023-03-22T11:27:24.064Z,1005.14
2023-03-22T11:28:45.896Z,1005.16
2023-03-22T11:29:24.184Z,1005.12
2023-03-22T11:30:23.952Z,1005.18
2023-03-22T11:31:24.255Z,1005.12
2023-03-22T11:32:23.995Z,1005.17
2023-03-22T11:33:25.681Z,1005.13
2023-03-22T11:34:23.978Z,1005.11
2023-03-22T11:35:24.243Z,1005.16
2023-03-22T11:36:24.025Z,1005.11
2023-03-22T11:37:24.269Z,1005.17
2023-03-22T11:38:45.666Z,1005.14
2023-03-22T11:39:24.306Z,1005.10
2023-03-22T11:40:24.115Z,1005.10
2023-03-22T11:41:23.860Z,1005.10
2023-03-22T11:42:24.133Z,1005.10
2023-03-22T11:43:23.872Z,1005.09
2023-03-22T11:44:24.124Z,1005.12
2023-03-22T11:45:23.864Z,1005.09
2023-03-22T11:46:24.286Z,1005.12
2023-03-22T11:47:23.938Z,1005.09
2023-03-22T11:48:45.799Z,1005.07
2023-03-22T11:49:23.980Z,1005.04
2023-03-22T11:50:24.250Z,1005.08
2023-03-22T11:51:23.995Z,1005.00
2023-03-22T11:52:23.745Z,1005.05
2023-03-22T11:53:23.998Z,1004.95
2023-03-22T11:54:23.818Z,1004.93
2023-03-22T11:55:24.065Z,1005.05
2023-03-22T11:56:23.834Z,1004.95
2023-03-22T11:57:24.100Z,1004.98
2023-03-22T11:58:45.365Z,1005.06
2023-03-22T11:59:23.656Z,1005.00
2023-03-22T12:00:23.970Z,1005.06
2023-03-22T12:01:23.703Z,1005.04
2023-03-22T12:02:24.115Z,1004.98
2023-03-22T12:03:23.807Z,1005.00
2023-03-22T12:04:23.978Z,1004.94
2023-03-22T12:05:23.808Z,1004.90
2023-03-22T12:06:24.049Z,1004.98